Time;durP1;ratioP1;P1;durP2;ratioP2;P2;SDS_P1;SDS_P2;PMS_P1;PMS_P2;Temp;Humidity;BMP_temperature;BMP_pressure;BME280_temperature;BME280_humidity;BME280_pressure;Samples;Min_cycle;Max_cycle;Signal;HPM_P1;HPM_P2
2021/10/12 00:01:40;;;;;;;3.72;0.65;;;24.20;44.80;;;;;;5086233;28;20135;-60
2021/10/12 00:04:07;;;;;;;0.47;0.10;;;24.20;44.80;;;;;;5085955;28;20077;-61
2021/10/12 00:06:36;;;;;;;6.32;0.75;;;24.20;44.90;;;;;;5082982;28;20055;-61
2021/10/12 00:09:03;;;;;;;2.60;0.77;;;24.20;44.90;;;;;;5076413;28;20082;-60
2021/10/12 00:11:31;;;;;;;3.60;0.20;;;24.20;45.00;;;;;;5072861;28;20059;-60
2021/10/12 00:13:58;;;;;;;3.55;0.20;;;24.20;45.10;;;;;;5081227;28;20085;-59
2021/10/12 00:16:25;;;;;;;2.53;0.25;;;24.10;45.20;;;;;;5083439;28;20601;-54
2021/10/12 00:18:53;;;;;;;11.68;0.50;;;24.20;45.50;;;;;;5083061;28;20035;-55
2021/10/12 00:21:21;;;;;;;0.98;0.38;;;24.20;45.60;;;;;;5084427;28;20051;-55
2021/10/12 00:23:49;;;;;;;0.40;0.20;;;24.10;45.70;;;;;;5082753;28;20109;-56
2021/10/12 00:26:16;;;;;;;1.15;0.30;;;24.10;45.80;;;;;;5080532;28;20547;-55
2021/10/12 00:28:44;;;;;;;11.10;0.40;;;24.10;45.90;;;;;;5083242;28;20036;-53
2021/10/12 00:31:11;;;;;;;2.88;0.30;;;24.00;46.50;;;;;;5082302;28;20053;-52
2021/10/12 00:33:38;;;;;;;0.70;0.38;;;24.00;45.90;;;;;;5084014;28;20039;-55
2021/10/12 00:36:05;;;;;;;2.22;0.52;;;23.90;46.00;;;;;;5090215;28;20545;-50
2021/10/12 00:38:33;;;;;;;2.90;1.65;;;23.90;46.00;;;;;;5083723;28;20040;-54
2021/10/12 00:41:01;;;;;;;2.78;0.25;;;23.80;46.00;;;;;;5071211;28;20078;-55
2021/10/12 00:43:29;;;;;;;4.07;0.20;;;23.80;46.10;;;;;;5079492;28;20041;-54
2021/10/12 00:45:59;;;;;;;1.08;0.13;;;23.70;46.20;;;;;;5074904;28;20045;-53
2021/10/12 00:48:27;;;;;;;2.50;0.77;;;23.60;46.10;;;;;;5075327;28;20512;-53
2021/10/12 00:50:54;;;;;;;6.05;1.00;;;23.50;46.00;;;;;;5074693;28;20032;-54
2021/10/12 00:53:21;;;;;;;1.38;0.20;;;23.50;46.00;;;;;;5077840;28;20054;-55
2021/10/12 00:55:48;;;;;;;0.50;0.30;;;23.50;46.20;;;;;;5074667;28;20106;-54
2021/10/12 00:58:17;;;;;;;1.67;0.35;;;23.40;46.20;;;;;;5076174;28;20420;-54
2021/10/12 01:00:44;;;;;;;0.98;0.20;;;23.40;46.30;;;;;;5080737;28;20028;-54
2021/10/12 01:03:11;;;;;;;3.70;0.95;;;23.30;46.30;;;;;;5076621;28;20405;-54
2021/10/12 01:05:40;;;;;;;2.83;0.20;;;23.30;46.50;;;;;;5080888;28;20098;-51
2021/10/12 01:08:08;;;;;;;1.25;0.38;;;23.20;46.60;;;;;;5074866;28;20404;-53
2021/10/12 01:10:35;;;;;;;1.08;0.20;;;23.20;46.80;;;;;;5084454;28;20090;-52
2021/10/12 01:13:03;;;;;;;2.83;0.43;;;23.10;47.00;;;;;;5081311;28;20094;-54
2021/10/12 01:15:32;;;;;;;3.30;0.30;;;23.10;47.10;;;;;;5082002;28;20055;-50
2021/10/12 01:18:00;;;;;;;1.50;0.60;;;23.00;47.20;;;;;;5079480;28;20516;-51
2021/10/12 01:20:28;;;;;;;2.08;0.17;;;23.00;47.30;;;;;;5074779;28;20052;-52
2021/10/12 01:22:57;;;;;;;1.55;0.10;;;22.90;47.40;;;;;;5076226;28;20170;-53
2021/10/12 01:25:24;;;;;;;1.55;0.40;;;22.90;47.60;;;;;;5082450;28;20063;-53
2021/10/12 01:27:51;;;;;;;2.33;0.20;;;22.80;47.70;;;;;;5077800;28;20457;-51
2021/10/12 01:30:18;;;;;;;0.30;0.30;;;22.80;47.80;;;;;;5086493;28;20032;-50
2021/10/12 01:32:46;;;;;;;3.55;0.82;;;22.80;47.90;;;;;;5076837;28;20044;-53
2021/10/12 01:35:16;;;;;;;6.72;0.22;;;22.70;48.00;;;;;;5078322;28;20101;-55
2021/10/12 01:37:43;;;;;;;1.73;0.30;;;22.70;48.10;;;;;;5078765;28;20037;-54
2021/10/12 01:40:15;;;;;;;1.80;0.95;;;22.60;48.20;;;;;;5079131;28;20459;-54
2021/10/12 01:42:43;;;;;;;1.63;0.10;;;22.60;48.30;;;;;;5083455;28;20064;-55
2021/10/12 01:45:11;;;;;;;3.13;0.20;;;22.60;48.50;;;;;;5079433;28;20516;-55
2021/10/12 01:47:38;;;;;;;0.82;0.82;;;22.50;48.50;;;;;;5083993;28;20032;-54
2021/10/12 01:50:08;;;;;;;2.53;0.20;;;22.50;48.50;;;;;;5076082;28;20044;-54
2021/10/12 01:52:35;;;;;;;0.85;0.10;;;22.50;48.70;;;;;;5089422;28;20071;-52
2021/10/12 01:55:03;;;;;;;0.30;0.20;;;22.40;48.70;;;;;;5081622;28;20032;-55
2021/10/12 01:57:32;;;;;;;0.45;0.10;;;22.40;49.40;;;;;;5080465;28;20036;-50
2021/10/12 01:59:59;;;;;;;0.90;0.45;;;22.40;49.00;;;;;;5078922;28;20043;-54
2021/10/12 02:02:27;;;;;;;2.05;0.20;;;22.40;49.10;;;;;;5074000;28;20059;-53
2021/10/12 02:04:54;;;;;;;0.20;0.10;;;22.40;49.20;;;;;;5078584;28;20570;-52
2021/10/12 02:07:21;;;;;;;0.73;0.10;;;22.30;49.10;;;;;;5081240;28;20420;-52
2021/10/12 02:09:49;;;;;;;1.20;0.38;;;22.30;49.20;;;;;;5083541;28;20443;-53
2021/10/12 02:12:16;;;;;;;0.93;0.15;;;22.30;49.30;;;;;;5076855;28;20040;-54
2021/10/12 02:14:44;;;;;;;0.85;0.30;;;22.20;49.20;;;;;;5076516;28;20668;-54
2021/10/12 02:17:12;;;;;;;0.80;0.15;;;22.20;49.30;;;;;;5077256;28;20036;-54
2021/10/12 02:19:39;;;;;;;6.80;0.20;;;22.20;49.40;;;;;;5077976;28;20106;-54
2021/10/12 02:22:06;;;;;;;0.50;0.10;;;22.20;49.40;;;;;;5083976;28;20056;-55
2021/10/12 02:24:33;;;;;;;6.03;0.13;;;22.20;49.50;;;;;;5083574;28;20082;-56
2021/10/12 02:27:00;;;;;;;0.30;0.10;;;22.20;49.60;;;;;;5078345;28;20136;-56
2021/10/12 02:29:27;;;;;;;7.97;0.30;;;22.10;49.60;;;;;;5074460;28;20045;-55
2021/10/12 02:31:56;;;;;;;1.60;0.55;;;22.20;49.70;;;;;;5074555;28;20055;-54
2021/10/12 02:34:23;;;;;;;1.95;0.20;;;22.10;49.70;;;;;;5082622;28;20413;-55
2021/10/12 02:36:50;;;;;;;1.85;0.17;;;22.10;49.80;;;;;;5079319;28;20119;-55
2021/10/12 02:39:17;;;;;;;1.20;0.28;;;22.10;49.80;;;;;;5077500;28;20582;-55
2021/10/12 02:41:45;;;;;;;1.13;0.30;;;22.00;50.10;;;;;;5075410;28;20048;-54
2021/10/12 02:44:12;;;;;;;1.88;0.30;;;22.00;49.80;;;;;;5079891;28;20520;-54
2021/10/12 02:46:39;;;;;;;0.55;0.10;;;22.00;49.90;;;;;;5077678;28;20119;-55
2021/10/12 02:49:07;;;;;;;1.50;0.45;;;22.00;50.00;;;;;;5080603;28;20033;-53
2021/10/12 02:51:34;;;;;;;0.80;0.10;;;22.00;50.00;;;;;;5082654;28;20514;-53
2021/10/12 02:54:01;;;;;;;0.45;0.40;;;22.00;50.10;;;;;;5084528;28;20040;-54
2021/10/12 02:56:28;;;;;;;0.55;0.30;;;22.00;50.10;;;;;;5073713;28;20055;-54
2021/10/12 02:58:55;;;;;;;2.47;0.22;;;22.00;50.20;;;;;;5076050;28;20051;-54
2021/10/12 03:01:22;;;;;;;2.10;0.10;;;21.90;50.20;;;;;;5076179;28;20048;-54
2021/10/12 03:03:49;;;;;;;0.98;0.20;;;21.90;50.20;;;;;;5077375;28;20056;-54
2021/10/12 03:06:17;;;;;;;0.50;0.10;;;21.90;50.30;;;;;;5078401;28;20040;-56
2021/10/12 03:08:44;;;;;;;2.90;0.35;;;21.90;50.40;;;;;;5077028;28;20678;-55
2021/10/12 03:11:12;;;;;;;0.98;0.10;;;21.90;50.50;;;;;;5073977;28;20075;-54
2021/10/12 03:13:39;;;;;;;0.82;0.10;;;21.90;50.50;;;;;;5075568;28;20045;-53
2021/10/12 03:16:08;;;;;;;0.88;0.10;;;21.90;50.60;;;;;;5082117;28;20032;-51
2021/10/12 03:18:35;;;;;;;0.88;0.10;;;21.90;50.60;;;;;;5078179;28;20111;-52
2021/10/12 03:21:03;;;;;;;1.67;0.20;;;21.90;50.60;;;;;;5074763;28;20041;-52
2021/10/12 03:23:32;;;;;;;0.38;0.20;;;21.80;50.60;;;;;;5078511;28;20058;-53
2021/10/12 03:25:59;;;;;;;0.57;0.10;;;21.80;50.60;;;;;;5079622;28;20044;-54
2021/10/12 03:28:26;;;;;;;1.55;0.10;;;21.80;50.60;;;;;;5079251;28;20040;-54
2021/10/12 03:30:53;;;;;;;1.65;0.52;;;21.80;50.70;;;;;;5078293;28;20078;-52
2021/10/12 03:33:20;;;;;;;1.63;0.75;;;21.80;50.70;;;;;;5079661;28;20113;-52
2021/10/12 03:35:54;;;;;;;2.85;0.17;;;21.80;50.70;;;;;;5088503;28;20458;-55
2021/10/12 03:38:21;;;;;;;1.00;0.10;;;21.80;50.70;;;;;;5074921;28;20567;-52
2021/10/12 03:40:49;;;;;;;0.75;0.20;;;21.80;50.70;;;;;;5078237;28;20435;-53
2021/10/12 03:43:17;;;;;;;0.50;0.50;;;21.80;50.80;;;;;;5075605;28;20049;-51
2021/10/12 03:45:43;;;;;;;2.25;0.20;;;21.80;50.80;;;;;;5076095;28;20501;-54
2021/10/12 03:48:11;;;;;;;2.42;0.20;;;21.70;50.70;;;;;;5076946;28;20079;-54
2021/10/12 03:50:38;;;;;;;2.42;0.10;;;21.70;50.70;;;;;;5075999;28;20082;-56
2021/10/12 03:53:05;;;;;;;0.82;0.10;;;21.70;50.70;;;;;;5075536;28;20051;-54
2021/10/12 03:55:32;;;;;;;1.08;1.00;;;21.70;50.70;;;;;;5081739;28;20051;-54
2021/10/12 03:58:01;;;;;;;0.82;0.10;;;21.70;50.80;;;;;;5081178;28;20043;-55
2021/10/12 04:00:28;;;;;;;1.27;0.20;;;21.70;50.80;;;;;;5077149;28;20032;-54
2021/10/12 04:02:55;;;;;;;0.88;0.63;;;21.70;50.80;;;;;;5073720;28;20565;-54
2021/10/12 04:05:21;;;;;;;0.45;0.45;;;21.70;50.80;;;;;;5075083;28;20586;-54
2021/10/12 04:07:49;;;;;;;1.45;0.10;;;21.70;50.80;;;;;;5080600;28;20044;-55
2021/10/12 04:10:16;;;;;;;2.20;0.65;;;21.70;50.80;;;;;;5077708;28;20036;-55
2021/10/12 04:12:43;;;;;;;1.15;0.20;;;21.70;50.80;;;;;;5077866;28;20032;-54
2021/10/12 04:15:11;;;;;;;2.10;0.10;;;21.60;50.70;;;;;;5077721;28;20044;-51
2021/10/12 04:17:38;;;;;;;0.60;0.20;;;21.60;50.70;;;;;;5078558;28;20115;-53
2021/10/12 04:20:06;;;;;;;0.35;0.10;;;21.60;50.70;;;;;;5074223;28;20040;-51
2021/10/12 04:22:33;;;;;;;1.35;0.65;;;21.60;50.70;;;;;;5079040;28;20747;-53
2021/10/12 04:25:00;;;;;;;0.47;0.10;;;21.60;50.70;;;;;;5076746;28;20528;-54
2021/10/12 04:27:28;;;;;;;0.65;0.10;;;21.60;50.80;;;;;;5075019;28;20034;-53
2021/10/12 04:29:56;;;;;;;0.80;0.10;;;21.60;50.90;;;;;;5076584;28;20529;-54
2021/10/12 04:32:24;;;;;;;1.40;0.10;;;21.60;51.00;;;;;;5075871;28;20032;-53
2021/10/12 04:34:51;;;;;;;1.30;0.10;;;21.60;51.00;;;;;;5074930;28;20412;-54
2021/10/12 04:37:20;;;;;;;1.30;0.10;;;21.50;51.00;;;;;;5076114;28;20417;-53
2021/10/12 04:39:47;;;;;;;1.85;0.10;;;21.50;51.00;;;;;;5080717;28;20576;-53
2021/10/12 04:42:14;;;;;;;0.85;0.20;;;21.50;51.10;;;;;;5077605;28;20047;-54
2021/10/12 04:44:41;;;;;;;0.30;0.20;;;21.50;51.10;;;;;;5077726;28;20036;-53
2021/10/12 04:47:10;;;;;;;0.50;0.10;;;21.50;51.10;;;;;;5077140;28;20124;-54
2021/10/12 04:49:38;;;;;;;0.47;0.10;;;21.50;51.10;;;;;;5085129;28;20040;-54
2021/10/12 04:52:06;;;;;;;0.68;0.10;;;21.50;51.20;;;;;;5089523;28;20067;-54
2021/10/12 04:54:33;;;;;;;0.47;0.32;;;21.50;51.20;;;;;;5083174;28;20039;-54
2021/10/12 04:57:00;;;;;;;1.63;0.20;;;21.50;51.30;;;;;;5079682;28;20046;-54
2021/10/12 04:59:27;;;;;;;1.23;0.10;;;21.40;51.30;;;;;;5075982;28;20040;-52
2021/10/12 05:01:55;;;;;;;0.85;0.10;;;21.40;51.40;;;;;;5094591;28;20036;-53
2021/10/12 05:04:22;;;;;;;1.48;0.25;;;21.40;51.40;;;;;;5082370;28;20060;-51
2021/10/12 05:06:50;;;;;;;0.85;0.10;;;21.40;51.50;;;;;;5094947;28;20047;-54
2021/10/12 05:09:17;;;;;;;3.63;0.10;;;21.40;51.50;;;;;;5096586;28;20036;-58
2021/10/12 05:11:44;;;;;;;4.13;0.20;;;21.40;51.60;;;;;;5094160;28;20036;-52
2021/10/12 05:14:13;;;;;;;1.77;0.50;;;21.40;51.60;;;;;;5084786;28;20028;-53
2021/10/12 05:16:40;;;;;;;2.15;0.28;;;21.40;51.70;;;;;;5086539;28;20115;-53
2021/10/12 05:19:07;;;;;;;2.97;0.30;;;21.40;51.70;;;;;;5086533;28;20686;-53
2021/10/12 05:24:37;;;;;;;1.42;0.10;;;21.40;51.80;;;;;;4785757;23;20195;-52
2021/10/12 05:27:04;;;;;;;1.60;0.10;;;21.30;51.80;;;;;;4933227;29;20051;-51
2021/10/12 05:29:32;;;;;;;2.28;0.20;;;21.40;52.00;;;;;;4930476;29;20062;-53
2021/10/12 05:31:59;;;;;;;12.75;3.95;;;21.30;51.90;;;;;;4932617;29;20492;-53
2021/10/12 05:34:26;;;;;;;6.45;1.70;;;21.30;52.60;;;;;;4929412;29;20105;-53
2021/10/12 05:36:53;;;;;;;2.95;0.95;;;21.30;52.50;;;;;;4933868;29;20711;-53
2021/10/12 05:39:20;;;;;;;3.25;0.57;;;21.40;52.50;;;;;;4931568;29;20048;-52
2021/10/12 05:41:49;;;;;;;2.60;0.95;;;21.30;52.40;;;;;;4934166;29;20702;-54
2021/10/12 05:44:16;;;;;;;6.63;0.88;;;21.30;52.40;;;;;;4932245;29;20039;-55
2021/10/12 05:46:43;;;;;;;4.28;1.23;;;21.30;52.40;;;;;;4927405;29;20048;-53
2021/10/12 05:49:10;;;;;;;0.50;0.50;;;21.40;52.50;;;;;;4930562;29;20531;-53
2021/10/12 05:51:37;;;;;;;1.55;0.50;;;21.30;52.40;;;;;;4932106;29;20044;-53
2021/10/12 05:54:06;;;;;;;2.50;0.30;;;21.30;52.40;;;;;;4931392;29;20123;-54
2021/10/12 05:56:40;;;;;;;1.70;0.40;;;21.30;52.50;;;;;;4929284;29;20067;-54
2021/10/12 05:59:08;;;;;;;4.13;0.50;;;21.30;52.50;;;;;;4924371;29;20138;-53
2021/10/12 06:01:36;;;;;;;2.88;0.47;;;21.30;52.50;;;;;;4931914;29;20430;-55
2021/10/12 06:04:03;;;;;;;4.35;0.68;;;21.30;52.40;;;;;;4932505;29;20519;-55
2021/10/12 06:06:30;;;;;;;3.70;0.30;;;21.30;52.50;;;;;;4931226;29;20040;-53
2021/10/12 06:08:57;;;;;;;9.63;0.47;;;21.30;52.50;;;;;;4934639;29;20048;-53
2021/10/12 06:11:24;;;;;;;4.20;0.60;;;21.30;53.00;;;;;;4927236;29;20043;-55
2021/10/12 06:13:52;;;;;;;0.40;0.30;;;21.30;52.40;;;;;;4928258;29;20039;-52
2021/10/12 06:16:21;;;;;;;4.75;0.20;;;21.30;52.40;;;;;;4929397;29;20045;-55
2021/10/12 06:18:48;;;;;;;1.10;0.40;;;21.30;52.40;;;;;;4928885;29;20039;-55
2021/10/12 06:21:15;;;;;;;0.55;0.30;;;21.30;52.40;;;;;;4928900;29;20044;-54
2021/10/12 06:23:42;;;;;;;9.02;0.50;;;21.30;52.30;;;;;;4932086;29;20062;-49
2021/10/12 06:26:09;;;;;;;7.85;1.27;;;21.30;52.70;;;;;;4933621;29;20059;-59
2021/10/12 06:28:36;;;;;;;5.05;0.60;;;21.30;52.90;;;;;;4929253;29;20039;-60
2021/10/12 06:31:03;;;;;;;3.45;0.95;;;21.30;52.90;;;;;;4911517;29;20047;-60
2021/10/12 06:33:32;;;;;;;4.97;0.30;;;21.30;52.80;;;;;;4931468;29;20048;-60
2021/10/12 06:35:59;;;;;;;3.50;0.88;;;21.30;52.70;;;;;;4932254;29;20058;-60
2021/10/12 06:38:26;;;;;;;5.65;0.50;;;21.30;53.20;;;;;;4933994;29;20047;-60
2021/10/12 06:40:53;;;;;;;7.05;1.20;;;21.30;52.60;;;;;;4929178;29;20039;-60
2021/10/12 06:43:20;;;;;;;2.38;0.75;;;21.30;52.60;;;;;;4931822;29;20044;-60
2021/10/12 06:45:48;;;;;;;2.00;0.50;;;21.30;52.50;;;;;;4933108;29;20066;-58
2021/10/12 06:48:15;;;;;;;3.55;0.55;;;21.30;52.50;;;;;;4929267;29;20181;-61
2021/10/12 06:50:43;;;;;;;4.10;0.70;;;21.30;52.50;;;;;;4931968;29;20047;-61
2021/10/12 06:53:10;;;;;;;7.50;0.88;;;21.30;52.40;;;;;;4932915;29;20432;-61
2021/10/12 06:55:37;;;;;;;5.38;0.57;;;21.30;52.30;;;;;;4935052;29;20046;-62
2021/10/12 06:58:05;;;;;;;2.47;0.32;;;21.30;52.30;;;;;;4930517;29;20044;-62
2021/10/12 07:00:33;;;;;;;2.05;0.55;;;21.30;52.30;;;;;;4934322;29;20048;-63
2021/10/12 07:03:00;;;;;;;6.75;0.90;;;21.30;52.30;;;;;;4931562;29;20435;-60
2021/10/12 07:05:27;;;;;;;8.70;1.45;;;21.20;52.10;;;;;;4932262;29;20047;-60
2021/10/12 07:07:55;;;;;;;12.25;0.75;;;21.30;52.60;;;;;;4934984;29;21053;-60
2021/10/12 07:10:22;;;;;;;6.60;1.05;;;21.30;52.60;;;;;;4935000;29;20040;-60
2021/10/12 07:12:52;;;;;;;13.73;0.65;;;21.30;52.50;;;;;;4930920;29;20500;-60
2021/10/12 07:15:19;;;;;;;7.72;0.90;;;21.30;52.40;;;;;;4916617;29;20455;-60
2021/10/12 07:17:46;;;;;;;7.32;0.98;;;21.30;52.30;;;;;;4937083;29;20055;-60
2021/10/12 07:20:13;;;;;;;9.77;1.75;;;21.30;52.20;;;;;;4934646;29;20496;-60
2021/10/12 07:22:41;;;;;;;3.00;0.65;;;21.30;52.00;;;;;;4932737;29;20067;-60
2021/10/12 07:25:09;;;;;;;7.03;0.77;;;21.30;51.90;;;;;;4934660;29;20051;-60
2021/10/12 07:27:37;;;;;;;9.65;0.60;;;21.30;51.80;;;;;;4935627;29;20047;-61
2021/10/12 07:30:05;;;;;;;5.72;1.45;;;21.30;51.70;;;;;;4934154;29;20389;-61
2021/10/12 07:32:32;;;;;;;10.45;0.88;;;21.30;52.20;;;;;;4917712;29;20075;-61
2021/10/12 07:35:00;;;;;;;5.97;1.05;;;21.30;51.50;;;;;;4936170;29;20135;-60
2021/10/12 07:37:27;;;;;;;4.13;0.77;;;21.30;51.50;;;;;;4935058;29;20487;-60
2021/10/12 07:39:55;;;;;;;3.85;0.47;;;21.30;51.40;;;;;;4930765;29;20130;-60
2021/10/12 07:42:23;;;;;;;8.13;0.90;;;21.30;51.30;;;;;;4933683;29;20035;-60
2021/10/12 07:44:50;;;;;;;6.68;1.15;;;21.30;51.20;;;;;;4937548;29;20392;-60
2021/10/12 07:47:17;;;;;;;3.58;0.93;;;21.30;51.10;;;;;;4934963;29;20147;-60
2021/10/12 07:49:44;;;;;;;4.80;0.90;;;21.30;51.00;;;;;;4933571;29;20570;-60
2021/10/12 07:52:11;;;;;;;8.30;1.10;;;21.30;51.00;;;;;;4931731;29;20423;-60
2021/10/12 07:54:47;;;;;;;4.00;0.55;;;21.30;50.90;;;;;;4932044;29;20494;-60
2021/10/12 07:57:15;;;;;;;1.85;0.57;;;21.30;50.80;;;;;;4931700;29;20886;-60
2021/10/12 07:59:44;;;;;;;6.97;1.55;;;21.30;50.80;;;;;;4935569;29;20043;-60
2021/10/12 08:02:12;;;;;;;3.85;0.75;;;21.30;50.70;;;;;;4936414;29;20051;-61
2021/10/12 08:04:41;;;;;;;5.47;1.05;;;21.30;50.60;;;;;;4934027;29;20050;-61
2021/10/12 08:07:08;;;;;;;1.42;0.70;;;21.30;50.60;;;;;;4931157;29;20048;-61
2021/10/12 08:09:36;;;;;;;2.38;0.70;;;21.30;50.50;;;;;;4933920;29;20040;-61
2021/10/12 08:12:04;;;;;;;2.30;0.95;;;21.30;50.40;;;;;;4933473;29;20504;-61
2021/10/12 08:14:32;;;;;;;1.23;0.70;;;21.30;50.40;;;;;;4932664;29;20035;-60
2021/10/12 08:17:01;;;;;;;2.28;0.90;;;21.30;50.40;;;;;;4937068;29;20118;-60
2021/10/12 08:19:29;;;;;;;2.30;0.52;;;21.40;50.30;;;;;;4934289;29;20044;-60
2021/10/12 08:21:56;;;;;;;3.55;1.05;;;21.40;50.20;;;;;;4930262;29;20146;-61
2021/10/12 08:24:23;;;;;;;1.95;0.40;;;21.40;50.20;;;;;;4931630;29;20070;-60
2021/10/12 08:26:51;;;;;;;2.78;0.82;;;21.40;50.20;;;;;;4938680;29;20048;-60
2021/10/12 08:29:19;;;;;;;3.40;0.68;;;21.40;50.10;;;;;;4934047;29;20534;-61
2021/10/12 08:31:46;;;;;;;2.80;0.30;;;21.40;50.00;;;;;;4932599;29;20562;-60
2021/10/12 08:34:16;;;;;;;4.43;0.77;;;21.40;50.00;;;;;;4934462;29;20079;-61
2021/10/12 08:36:43;;;;;;;1.38;0.50;;;21.40;49.90;;;;;;4934705;29;20040;-60
2021/10/12 08:39:11;;;;;;;2.13;0.80;;;21.40;49.80;;;;;;4914885;29;20048;-60
2021/10/12 08:41:44;;;;;;;3.20;0.50;;;21.40;49.70;;;;;;4932158;29;20080;-60
2021/10/12 08:44:12;;;;;;;1.05;0.32;;;21.40;49.70;;;;;;4934724;29;20044;-60
2021/10/12 08:46:40;;;;;;;4.97;0.82;;;21.40;49.70;;;;;;4933627;29;20044;-61
2021/10/12 08:49:07;;;;;;;2.67;0.80;;;21.40;49.70;;;;;;4930494;29;20058;-61
2021/10/12 08:51:36;;;;;;;1.17;0.82;;;21.50;49.70;;;;;;4932253;29;20472;-60
2021/10/12 08:54:03;;;;;;;0.82;0.52;;;21.50;49.60;;;;;;4932092;29;20052;-61
2021/10/12 08:56:30;;;;;;;1.48;0.50;;;21.50;49.50;;;;;;4902117;29;20071;-60
2021/10/12 08:58:57;;;;;;;1.40;0.28;;;21.50;49.50;;;;;;4915138;29;20040;-60
2021/10/12 09:01:27;;;;;;;4.72;1.02;;;21.50;49.40;;;;;;4914325;29;20036;-60
2021/10/12 09:04:02;;;;;;;3.00;0.70;;;21.50;49.40;;;;;;4914739;29;20128;-60
2021/10/12 09:06:31;;;;;;;2.33;0.50;;;21.50;49.30;;;;;;4911004;29;20123;-61
2021/10/12 09:09:02;;;;;;;4.10;0.55;;;21.60;49.30;;;;;;4911617;29;20787;-61
2021/10/12 09:11:31;;;;;;;1.02;0.40;;;21.60;49.30;;;;;;4916552;29;20047;-60
2021/10/12 09:14:04;;;;;;;1.60;0.77;;;21.60;49.30;;;;;;4917663;29;20241;-60
2021/10/12 09:16:35;;;;;;;3.75;0.93;;;21.60;49.20;;;;;;4914242;29;20162;-60
2021/10/12 09:19:04;;;;;;;2.80;1.00;;;21.60;49.20;;;;;;4914653;29;20080;-61
2021/10/12 09:21:34;;;;;;;3.58;0.85;;;21.60;49.10;;;;;;4914769;29;20044;-60
2021/10/12 09:24:05;;;;;;;3.47;0.52;;;21.70;49.00;;;;;;4924150;29;20051;-60
2021/10/12 09:26:35;;;;;;;1.65;0.57;;;21.70;49.00;;;;;;4916121;29;20044;-60
2021/10/12 09:29:06;;;;;;;1.23;0.75;;;21.70;48.90;;;;;;4916684;29;20040;-60
2021/10/12 09:31:34;;;;;;;5.45;1.00;;;21.70;48.80;;;;;;4917492;29;20508;-60
2021/10/12 09:34:04;;;;;;;1.83;0.47;;;21.70;48.80;;;;;;4921839;29;20043;-60
2021/10/12 09:36:34;;;;;;;4.10;0.68;;;21.70;48.70;;;;;;4932794;29;20071;-60
2021/10/12 09:39:03;;;;;;;5.90;2.60;;;21.80;48.70;;;;;;4914992;29;20044;-60
2021/10/12 09:41:31;;;;;;;5.95;1.33;;;21.70;48.70;;;;;;4919241;29;20453;-60
2021/10/12 09:44:12;;;;;;;2.20;0.90;;;21.80;48.70;;;;;;4917187;29;20493;-60
2021/10/12 09:46:40;;;;;;;2.38;0.77;;;21.80;48.60;;;;;;4917678;29;20100;-60
2021/10/12 09:49:12;;;;;;;2.90;0.95;;;21.80;48.60;;;;;;4916397;29;20139;-60
2021/10/12 09:51:43;;;;;;;3.58;1.48;;;21.90;48.60;;;;;;4900617;29;20163;-60
2021/10/12 09:54:23;;;;;;;4.22;1.73;;;21.80;48.60;;;;;;4937037;29;20409;-60
2021/10/12 09:56:50;;;;;;;4.57;1.38;;;21.90;48.50;;;;;;4915597;29;20189;-61
2021/10/12 09:59:18;;;;;;;7.40;1.80;;;21.90;48.50;;;;;;4917074;29;20501;-61
2021/10/12 10:01:47;;;;;;;7.28;2.50;;;21.90;48.50;;;;;;4917148;29;20036;-60
2021/10/12 10:04:18;;;;;;;6.07;0.90;;;21.90;48.50;;;;;;4917222;29;20712;-60
2021/10/12 10:06:47;;;;;;;10.25;1.40;;;21.90;48.40;;;;;;4915955;29;20568;-61
2021/10/12 10:09:15;;;;;;;8.45;2.40;;;21.90;48.40;;;;;;4916723;29;20056;-60
2021/10/12 10:11:44;;;;;;;6.70;1.73;;;21.90;48.40;;;;;;4916385;29;20127;-60
2021/10/12 10:14:12;;;;;;;5.10;1.38;;;21.90;48.40;;;;;;4916446;29;20448;-60
2021/10/12 10:16:46;;;;;;;5.78;1.73;;;21.90;48.30;;;;;;4917693;29;20722;-61
2021/10/12 10:19:17;;;;;;;3.92;1.33;;;21.90;48.30;;;;;;4916939;29;20040;-60
2021/10/12 10:21:48;;;;;;;4.47;1.30;;;22.00;48.30;;;;;;4916971;29;20851;-59
2021/10/12 10:24:22;;;;;;;6.07;1.20;;;22.00;48.30;;;;;;4925988;29;20056;-60
2021/10/12 10:26:52;;;;;;;3.28;1.08;;;22.00;48.20;;;;;;4918656;29;20059;-59
2021/10/12 10:29:35;;;;;;;4.35;1.10;;;22.00;48.20;;;;;;4916429;29;20132;-59
2021/10/12 10:32:12;;;;;;;6.18;1.38;;;22.10;48.10;;;;;;4917421;29;20402;-59
2021/10/12 10:34:41;;;;;;;3.75;0.93;;;22.10;48.10;;;;;;4916571;29;20520;-59
2021/10/12 10:37:25;;;;;;;3.50;0.50;;;22.10;48.10;;;;;;4916825;29;20044;-61
2021/10/12 10:39:55;;;;;;;1.73;1.23;;;22.10;48.00;;;;;;4908880;29;20051;-59
2021/10/12 10:43:07;;;;;;;5.78;0.90;;;22.10;48.00;;;;;;4915226;29;20044;-60
2021/10/12 10:45:47;;;;;;;3.78;1.92;;;22.10;47.80;;;;;;4868930;29;20428;-60
2021/10/12 10:48:16;;;;;;;3.42;1.45;;;22.10;47.80;;;;;;4857339;29;20173;-60
2021/10/12 10:50:43;;;;;;;5.15;0.63;;;22.10;47.90;;;;;;4856766;29;20046;-60
2021/10/12 10:53:11;;;;;;;4.07;0.75;;;22.20;47.90;;;;;;4864060;29;20069;-60
2021/10/12 10:55:40;;;;;;;3.58;0.65;;;22.20;47.90;;;;;;4863334;29;20199;-59
2021/10/12 10:58:16;;;;;;;3.92;0.75;;;22.20;48.40;;;;;;4857487;29;20053;-60
2021/10/12 11:00:47;;;;;;;2.58;1.83;;;22.30;47.80;;;;;;4857675;29;20409;-60
2021/10/12 11:03:39;;;;;;;4.35;0.80;;;22.30;47.70;;;;;;4855841;29;20749;-60
2021/10/12 11:06:17;;;;;;;2.83;1.20;;;22.40;48.20;;;;;;4869996;29;20197;-60
2021/10/12 11:09:01;;;;;;;3.38;1.30;;;22.40;47.50;;;;;;4856149;29;20540;-60
2021/10/12 11:11:33;;;;;;;2.70;0.50;;;22.50;47.40;;;;;;4857274;29;20057;-59
2021/10/12 11:14:00;;;;;;;4.20;1.50;;;22.50;47.40;;;;;;4857267;29;20056;-60
2021/10/12 11:16:36;;;;;;;2.10;0.60;;;22.50;47.20;;;;;;4857200;29;20037;-61
2021/10/12 11:19:04;;;;;;;4.15;0.50;;;22.60;47.20;;;;;;4857283;29;20053;-61
2021/10/12 11:21:34;;;;;;;1.90;0.73;;;22.60;47.10;;;;;;4890426;29;20056;-61
2021/10/12 11:24:02;;;;;;;2.28;0.80;;;22.70;47.10;;;;;;4925137;29;20423;-62
2021/10/12 11:26:31;;;;;;;2.13;0.98;;;22.70;47.60;;;;;;4916940;29;20084;-61
2021/10/12 11:28:59;;;;;;;5.72;0.65;;;22.70;46.90;;;;;;4915657;29;20040;-61
2021/10/12 11:31:28;;;;;;;2.35;0.50;;;22.80;46.90;;;;;;4915706;29;20048;-61
2021/10/12 11:33:59;;;;;;;5.80;1.15;;;22.80;46.80;;;;;;4915773;29;20051;-61
2021/10/12 11:36:29;;;;;;;1.63;0.30;;;22.80;46.70;;;;;;4915603;29;20040;-61
2021/10/12 11:38:59;;;;;;;6.25;0.70;;;22.80;46.60;;;;;;4928327;29;20058;-61
2021/10/12 11:41:27;;;;;;;2.85;0.80;;;22.90;46.60;;;;;;4916330;29;20067;-61
2021/10/12 11:43:57;;;;;;;3.10;0.93;;;22.90;46.50;;;;;;4915381;29;20043;-61
2021/10/12 11:46:27;;;;;;;2.58;1.00;;;22.90;46.40;;;;;;4915254;29;20524;-61
2021/10/12 11:48:57;;;;;;;3.40;0.68;;;23.00;46.40;;;;;;4915457;29;20046;-61
2021/10/12 11:51:26;;;;;;;2.05;0.60;;;23.00;46.30;;;;;;4914504;29;20693;-61
2021/10/12 11:53:55;;;;;;;4.63;0.90;;;23.00;46.20;;;;;;4925163;29;20131;-60
2021/10/12 11:56:24;;;;;;;0.57;0.20;;;23.00;46.10;;;;;;4915281;29;20044;-59
2021/10/12 11:58:57;;;;;;;2.95;0.30;;;23.00;46.10;;;;;;4909422;29;20134;-61
2021/10/12 12:01:31;;;;;;;1.60;0.35;;;23.10;46.00;;;;;;4923388;29;20052;-61
2021/10/12 12:04:00;;;;;;;1.15;0.20;;;23.10;46.00;;;;;;4915321;29;20047;-61
2021/10/12 12:06:30;;;;;;;1.50;0.50;;;23.00;46.50;;;;;;4911575;29;20087;-60
2021/10/12 12:09:00;;;;;;;3.08;0.63;;;23.00;46.00;;;;;;4927160;29;20056;-58
2021/10/12 12:11:29;;;;;;;2.47;0.95;;;23.00;45.90;;;;;;4898692;29;20051;-61
2021/10/12 12:13:58;;;;;;;1.48;0.35;;;23.10;45.90;;;;;;4915060;29;20147;-61
2021/10/12 12:16:32;;;;;;;3.08;0.63;;;23.10;45.90;;;;;;4915241;29;20046;-61
2021/10/12 12:19:01;;;;;;;1.05;0.38;;;23.10;45.90;;;;;;4915032;29;20515;-61
2021/10/12 12:21:32;;;;;;;2.50;0.57;;;23.20;45.90;;;;;;4915194;29;20040;-61
2021/10/12 12:24:03;;;;;;;1.73;0.55;;;23.20;45.90;;;;;;4926165;29;20047;-62
2021/10/12 12:26:32;;;;;;;4.88;0.40;;;23.20;45.80;;;;;;4916274;29;20044;-61
2021/10/12 12:29:19;;;;;;;2.22;1.13;;;23.20;45.80;;;;;;4914855;29;20043;-62
2021/10/12 12:31:48;;;;;;;2.95;0.57;;;23.20;45.70;;;;;;4914809;29;20047;-61
2021/10/12 12:34:30;;;;;;;0.65;0.43;;;23.20;45.70;;;;;;4914760;29;20048;-62
2021/10/12 12:36:58;;;;;;;1.95;0.40;;;23.30;45.70;;;;;;4915143;29;20135;-61
2021/10/12 12:39:34;;;;;;;2.55;0.30;;;23.30;46.30;;;;;;4914028;29;20127;-61
2021/10/12 12:42:02;;;;;;;2.63;1.05;;;23.30;45.60;;;;;;4927118;29;20401;-61
2021/10/12 12:44:29;;;;;;;1.05;0.28;;;23.30;45.50;;;;;;4914717;29;20432;-61
2021/10/12 12:46:57;;;;;;;1.75;0.20;;;23.30;45.40;;;;;;4914752;29;20048;-61
2021/10/12 12:49:25;;;;;;;1.23;0.32;;;23.30;45.40;;;;;;4914574;29;20077;-61
2021/10/12 12:51:54;;;;;;;2.17;0.38;;;23.30;45.30;;;;;;4915061;29;20055;-62
2021/10/12 12:54:34;;;;;;;2.40;0.20;;;23.30;45.20;;;;;;4923621;29;20568;-61
2021/10/12 12:57:08;;;;;;;2.35;0.55;;;23.40;45.20;;;;;;4927141;29;20055;-60